createdAt,value
2019-05-19T00:02:08.460Z,55.26
2019-05-19T00:05:10.631Z,55.31
2019-05-19T00:08:13.355Z,55.29
2019-05-19T00:11:15.294Z,55.45
2019-05-19T00:14:17.222Z,56.03
2019-05-19T00:17:19.167Z,56.37
2019-05-19T00:20:21.095Z,57.35
2019-05-19T00:23:23.036Z,57.93
2019-05-19T00:26:24.996Z,57.99
2019-05-19T00:29:26.958Z,58.00
2019-05-19T00:32:30.178Z,58.10
2019-05-19T00:35:32.415Z,58.11
2019-05-19T00:38:34.272Z,58.09
2019-05-19T00:41:36.259Z,57.89
2019-05-19T00:44:38.175Z,57.66
2019-05-19T00:47:40.180Z,57.66
2019-05-19T00:50:42.191Z,58.05
2019-05-19T00:53:44.151Z,58.17
2019-05-19T00:56:46.788Z,58.44
2019-05-19T00:59:48.941Z,58.45
2019-05-19T01:02:50.904Z,58.34
2019-05-19T01:05:52.953Z,58.43
2019-05-19T01:08:54.896Z,58.44
2019-05-19T01:11:56.860Z,58.50
2019-05-19T01:14:58.910Z,58.83
2019-05-19T01:18:00.895Z,58.88
2019-05-19T01:21:02.834Z,58.93
2019-05-19T01:24:04.786Z,58.85
2019-05-19T01:27:06.689Z,58.41
2019-05-19T01:30:10.301Z,58.08
2019-05-19T01:33:12.223Z,57.94
2019-05-19T01:36:14.117Z,58.04
2019-05-19T01:39:16.120Z,58.04
2019-05-19T01:42:18.026Z,58.25
2019-05-19T01:45:20.070Z,58.41
2019-05-19T01:48:22.000Z,58.66
2019-05-19T01:51:23.947Z,59.59
2019-05-19T01:54:25.903Z,60.21
2019-05-19T01:57:27.923Z,60.20
2019-05-19T02:00:29.830Z,60.23
2019-05-19T02:03:31.821Z,60.41
2019-05-19T02:06:33.901Z,60.76
2019-05-19T02:09:35.866Z,60.90
2019-05-19T02:12:37.869Z,60.64
2019-05-19T02:15:39.788Z,60.58
2019-05-19T02:18:41.800Z,60.50
2019-05-19T02:21:43.767Z,60.00
2019-05-19T02:24:45.817Z,60.06
2019-05-19T02:27:47.718Z,60.07
2019-05-19T02:30:49.759Z,59.74
2019-05-19T02:33:51.747Z,59.34
2019-05-19T02:36:53.818Z,59.19
2019-05-19T02:39:55.830Z,59.28
2019-05-19T02:42:59.051Z,59.48
2019-05-19T02:46:02.746Z,59.50
2019-05-19T02:49:05.675Z,59.56
2019-05-19T02:52:10.665Z,59.87
2019-05-19T02:55:13.194Z,60.51
2019-05-19T02:58:15.946Z,60.80
2019-05-19T03:01:17.921Z,61.40
2019-05-19T03:04:19.868Z,61.85
2019-05-19T03:07:21.866Z,61.83
2019-05-19T03:10:23.875Z,61.98
2019-05-19T03:13:25.826Z,62.22
2019-05-19T03:16:27.692Z,62.45
2019-05-19T03:19:29.685Z,62.55
2019-05-19T03:22:31.712Z,63.20
2019-05-19T03:25:33.719Z,63.39
2019-05-19T03:28:35.732Z,63.17
2019-05-19T03:31:59.114Z,62.83
2019-05-19T03:35:01.192Z,62.01
2019-05-19T03:38:03.238Z,61.19
2019-05-19T03:41:05.193Z,59.18
2019-05-19T03:44:07.123Z,56.62
2019-05-19T03:47:09.028Z,54.41
2019-05-19T03:50:10.963Z,51.76
2019-05-19T03:53:14.471Z,50.03
2019-05-19T03:56:16.451Z,48.18
2019-05-19T03:59:18.367Z,46.64
2019-05-19T04:02:20.368Z,44.99
2019-05-19T04:05:22.360Z,43.67
2019-05-19T04:08:24.356Z,42.51
2019-05-19T04:11:26.311Z,41.17
2019-05-19T04:14:28.231Z,40.23
2019-05-19T04:17:30.107Z,38.30
2019-05-19T04:20:32.042Z,37.05
2019-05-19T04:23:33.950Z,35.82
2019-05-19T04:26:35.918Z,34.45
2019-05-19T04:29:39.496Z,33.61
2019-05-19T04:32:41.663Z,32.81
2019-05-19T04:35:43.600Z,32.49
2019-05-19T04:38:45.592Z,32.13
2019-05-19T04:41:47.570Z,32.55
2019-05-19T04:44:49.574Z,32.16
2019-05-19T04:47:51.555Z,31.62
2019-05-19T04:50:53.506Z,31.47
2019-05-19T04:53:55.461Z,31.79
2019-05-19T04:56:57.344Z,32.35
2019-05-19T04:59:59.273Z,32.64
2019-05-19T05:03:01.153Z,32.01
2019-05-19T05:06:03.155Z,31.36
2019-05-19T05:09:06.227Z,29.88
2019-05-19T05:12:08.223Z,28.56
2019-05-19T05:15:10.441Z,27.93
2019-05-19T05:18:12.348Z,27.96
2019-05-19T05:21:17.350Z,28.04
2019-05-19T05:24:19.308Z,27.79
2019-05-19T05:27:21.276Z,28.05
2019-05-19T05:30:23.192Z,27.94
2019-05-19T05:33:25.194Z,27.85
2019-05-19T05:36:27.841Z,27.73
2019-05-19T05:39:30.420Z,27.96
2019-05-19T05:42:32.337Z,27.63
2019-05-19T05:45:34.355Z,27.66
2019-05-19T05:48:36.272Z,27.88
2019-05-19T05:51:38.307Z,28.11
2019-05-19T05:54:40.260Z,27.10
2019-05-19T05:57:42.200Z,25.96
2019-05-19T06:00:44.111Z,25.30
2019-05-19T06:03:46.074Z,25.21
2019-05-19T06:06:48.070Z,25.41
2019-05-19T06:09:50.124Z,26.13
2019-05-19T06:12:52.027Z,25.96
2019-05-19T06:15:54.091Z,26.23
2019-05-19T06:18:56.880Z,26.24
2019-05-19T06:21:59.238Z,26.58
2019-05-19T06:25:01.235Z,26.85
2019-05-19T06:28:03.309Z,26.78
2019-05-19T06:31:05.302Z,27.03
2019-05-19T06:34:07.361Z,26.33
2019-05-19T06:37:09.284Z,25.94
2019-05-19T06:40:12.196Z,25.58
2019-05-19T06:43:14.185Z,25.53
2019-05-19T06:46:16.125Z,24.83
2019-05-19T06:49:18.169Z,24.58
2019-05-19T06:52:20.162Z,24.44
2019-05-19T06:55:22.271Z,23.95
2019-05-19T06:58:24.489Z,24.20
2019-05-19T07:01:26.504Z,24.43
2019-05-19T07:04:28.418Z,24.54
2019-05-19T07:07:30.386Z,24.69
2019-05-19T07:10:32.397Z,24.82
2019-05-19T07:13:34.287Z,24.58
2019-05-19T07:16:36.241Z,24.41
2019-05-19T07:19:38.166Z,23.65
2019-05-19T07:22:40.116Z,24.14
2019-05-19T07:25:42.452Z,24.10
2019-05-19T07:28:44.426Z,23.79
2019-05-19T07:31:46.557Z,23.54
2019-05-19T07:34:48.597Z,23.47
2019-05-19T07:37:50.559Z,23.40
2019-05-19T07:40:52.475Z,23.39
2019-05-19T07:43:54.391Z,23.44
2019-05-19T07:46:56.400Z,22.83
2019-05-19T07:49:58.356Z,23.39
2019-05-19T07:53:00.335Z,23.29
2019-05-19T07:56:02.312Z,23.73
2019-05-19T07:59:07.802Z,24.53
2019-05-19T08:02:08.205Z,24.78
2019-05-19T08:05:10.232Z,24.40
2019-05-19T08:08:12.200Z,24.36
2019-05-19T08:11:14.197Z,24.35
2019-05-19T08:14:16.193Z,25.12
2019-05-19T08:17:18.151Z,25.93
2019-05-19T08:20:20.338Z,25.51
2019-05-19T08:23:22.535Z,26.58
2019-05-19T08:26:24.586Z,26.45
2019-05-19T08:29:26.542Z,26.15
2019-05-19T08:32:28.449Z,25.59
2019-05-19T08:35:30.412Z,26.09
2019-05-19T08:38:32.329Z,27.42
2019-05-19T08:41:34.637Z,26.84
2019-05-19T08:44:36.634Z,27.16
2019-05-19T08:47:38.594Z,27.14
2019-05-19T08:50:40.540Z,26.73
2019-05-19T08:53:42.512Z,27.81
2019-05-19T08:56:44.529Z,27.67
2019-05-19T08:59:46.559Z,27.01
2019-05-19T09:02:48.543Z,27.22
2019-05-19T09:05:50.548Z,27.38
2019-05-19T09:08:52.597Z,26.83
2019-05-19T09:11:54.840Z,26.84
2019-05-19T09:14:56.799Z,29.34
2019-05-19T09:17:58.710Z,28.75
2019-05-19T09:21:01.891Z,28.75
2019-05-19T09:24:03.789Z,29.87
2019-05-19T09:27:05.811Z,31.03
2019-05-19T09:30:09.276Z,31.63
2019-05-19T09:33:11.298Z,30.64
2019-05-19T09:36:13.214Z,30.35
2019-05-19T09:39:15.208Z,32.76
2019-05-19T09:42:17.144Z,32.75
2019-05-19T09:45:19.143Z,33.60
2019-05-19T09:48:21.066Z,34.46
2019-05-19T09:51:23.030Z,34.12
2019-05-19T09:54:24.947Z,34.58
2019-05-19T09:57:26.957Z,36.30
2019-05-19T10:00:29.014Z,34.79
2019-05-19T10:03:30.996Z,36.20
2019-05-19T10:06:33.004Z,34.22
2019-05-19T10:09:56.311Z,34.43
2019-05-19T10:12:58.395Z,35.72
2019-05-19T10:16:00.437Z,37.28
2019-05-19T10:19:03.551Z,37.06
2019-05-19T10:22:05.463Z,36.21
2019-05-19T10:25:21.847Z,36.01
2019-05-19T10:28:13.507Z,35.61
2019-05-19T10:31:15.497Z,36.17
2019-05-19T10:34:17.864Z,34.91
2019-05-19T10:37:19.934Z,35.37
2019-05-19T10:40:21.895Z,35.64
2019-05-19T10:43:23.918Z,36.34
2019-05-19T10:46:26.150Z,36.68
2019-05-19T10:49:28.069Z,35.54
2019-05-19T10:52:30.052Z,37.49
2019-05-19T10:55:36.592Z,37.68
2019-05-19T10:58:35.991Z,37.56
2019-05-19T11:01:38.032Z,37.32
2019-05-19T11:04:39.958Z,37.49
2019-05-19T11:07:41.993Z,37.33
2019-05-19T11:10:43.986Z,36.05
2019-05-19T11:13:46.074Z,35.85
2019-05-19T11:16:48.084Z,36.92
2019-05-19T11:19:51.269Z,37.59
2019-05-19T11:22:53.187Z,37.16
2019-05-19T11:25:55.367Z,37.69
2019-05-19T11:28:57.358Z,37.03
2019-05-19T11:31:59.385Z,38.24
2019-05-19T11:35:01.417Z,37.92
2019-05-19T11:38:03.383Z,37.40
2019-05-19T11:41:05.387Z,35.06
2019-05-19T11:44:07.371Z,36.76
2019-05-19T11:47:09.637Z,34.49
2019-05-19T11:50:11.680Z,35.55
2019-05-19T11:53:14.771Z,36.77
2019-05-19T11:56:16.667Z,35.10
2019-05-19T11:59:18.675Z,34.98
2019-05-19T12:02:20.590Z,34.63
2019-05-19T12:05:22.640Z,35.65
2019-05-19T12:08:24.704Z,35.00
2019-05-19T12:11:26.681Z,35.25
2019-05-19T12:14:28.786Z,33.47
2019-05-19T12:17:30.716Z,33.93
2019-05-19T12:20:32.648Z,35.51
2019-05-19T12:23:34.588Z,35.85
2019-05-19T12:26:36.507Z,34.76
2019-05-19T12:29:38.463Z,34.11
2019-05-19T12:32:40.381Z,36.89
2019-05-19T12:35:42.344Z,35.00
2019-05-19T12:38:44.407Z,34.93
2019-05-19T12:41:46.394Z,34.37
2019-05-19T12:44:48.565Z,34.67
2019-05-19T12:47:51.307Z,34.14
2019-05-19T12:50:53.263Z,34.60
2019-05-19T12:53:55.258Z,35.45
2019-05-19T12:56:57.269Z,34.26
2019-05-19T12:59:59.304Z,35.74
2019-05-19T13:03:01.198Z,35.83
2019-05-19T13:06:03.183Z,36.98
2019-05-19T13:09:05.102Z,36.08
2019-05-19T13:12:07.186Z,34.93
2019-05-19T13:15:09.270Z,34.31
2019-05-19T13:18:11.231Z,35.12
2019-05-19T13:21:13.199Z,33.37
2019-05-19T13:24:15.164Z,34.07
2019-05-19T13:27:17.065Z,35.25
2019-05-19T13:30:19.011Z,34.42
2019-05-19T13:33:20.868Z,35.38
2019-05-19T13:36:22.798Z,34.70
2019-05-19T13:39:24.791Z,34.70
2019-05-19T13:42:26.777Z,34.95
2019-05-19T13:45:28.797Z,33.26
2019-05-19T13:48:30.804Z,34.36
2019-05-19T13:51:32.872Z,34.04
2019-05-19T13:54:34.803Z,33.78
2019-05-19T13:57:36.850Z,33.50
2019-05-19T14:00:38.806Z,32.50
2019-05-19T14:03:42.587Z,32.46
2019-05-19T14:06:46.384Z,33.98
2019-05-19T14:09:49.376Z,33.75
2019-05-19T14:12:51.426Z,35.92
2019-05-19T14:15:53.550Z,34.11
2019-05-19T14:18:55.518Z,34.75
2019-05-19T14:21:57.515Z,36.50
2019-05-19T14:24:59.471Z,35.64
2019-05-19T14:28:02.969Z,35.00
2019-05-19T14:31:05.090Z,37.05
2019-05-19T14:34:08.101Z,38.01
2019-05-19T14:37:10.512Z,36.11
2019-05-19T14:40:13.186Z,37.05
2019-05-19T14:43:17.033Z,35.70
2019-05-19T14:46:20.183Z,34.13
2019-05-19T14:49:22.161Z,36.50
2019-05-19T14:52:24.111Z,39.38
2019-05-19T14:55:26.124Z,39.67
2019-05-19T14:58:28.155Z,38.79
2019-05-19T15:01:30.058Z,37.99
2019-05-19T15:04:32.044Z,39.02
2019-05-19T15:07:34.007Z,37.83
2019-05-19T15:10:38.511Z,37.36
2019-05-19T15:13:40.487Z,36.17
2019-05-19T15:16:42.556Z,37.46
2019-05-19T15:19:46.797Z,36.28
2019-05-19T15:22:48.807Z,36.43
2019-05-19T15:25:50.795Z,36.73
2019-05-19T15:28:52.787Z,35.64
2019-05-19T15:31:55.196Z,34.66
2019-05-19T15:34:57.209Z,34.03
2019-05-19T15:37:59.169Z,33.71
2019-05-19T15:41:01.270Z,33.71
2019-05-19T15:44:04.737Z,33.36
2019-05-19T15:47:06.747Z,33.14
2019-05-19T15:50:10.476Z,33.07
2019-05-19T15:53:12.443Z,33.28
2019-05-19T15:56:14.472Z,33.49
2019-05-19T15:59:16.440Z,33.70
2019-05-19T16:02:18.397Z,33.85
2019-05-19T16:05:24.282Z,33.77
2019-05-19T16:08:26.271Z,34.08
2019-05-19T16:11:28.320Z,35.41
2019-05-19T16:14:30.280Z,37.97
2019-05-19T16:17:33.952Z,37.38
2019-05-19T16:20:35.988Z,37.05
2019-05-19T16:23:37.986Z,38.38
2019-05-19T16:26:39.952Z,39.52
2019-05-19T16:29:44.101Z,40.82
2019-05-19T16:32:46.083Z,41.42
2019-05-19T16:35:52.307Z,40.65
2019-05-19T16:38:54.812Z,40.91
2019-05-19T16:41:58.143Z,42.95
2019-05-19T16:45:00.138Z,44.93
2019-05-19T16:48:02.162Z,46.13
2019-05-19T16:51:04.158Z,47.09
2019-05-19T16:54:14.811Z,48.36
2019-05-19T16:57:16.736Z,48.98
2019-05-19T17:00:19.414Z,47.37
2019-05-19T17:03:22.660Z,47.82
2019-05-19T17:06:28.180Z,48.87
2019-05-19T17:09:30.186Z,48.80
2019-05-19T17:12:37.055Z,49.22
2019-05-19T17:15:41.255Z,48.49
2019-05-19T17:18:43.367Z,47.85
2019-05-19T17:21:47.193Z,47.29
2019-05-19T17:24:52.571Z,48.22
2019-05-19T17:27:59.500Z,48.94
2019-05-19T17:31:07.350Z,48.94
2019-05-19T17:34:09.548Z,48.83
2019-05-19T17:37:18.645Z,48.50
2019-05-19T17:40:20.825Z,48.40
2019-05-19T17:43:24.151Z,48.63
2019-05-19T17:46:26.395Z,48.27
2019-05-19T17:49:28.428Z,47.97
2019-05-19T17:52:33.865Z,48.16
2019-05-19T17:55:37.677Z,47.98
2019-05-19T17:58:40.021Z,48.12
2019-05-19T18:01:42.137Z,48.16
2019-05-19T18:04:44.063Z,48.08
2019-05-19T18:07:46.029Z,48.08
2019-05-19T18:10:49.161Z,48.17
2019-05-19T18:13:52.955Z,48.17
2019-05-19T18:16:56.620Z,48.18
2019-05-19T18:19:58.934Z,48.06
2019-05-19T18:23:01.303Z,47.78
2019-05-19T18:26:07.328Z,47.74
2019-05-19T18:29:10.030Z,48.30
2019-05-19T18:32:14.745Z,49.06
2019-05-19T18:35:17.149Z,49.18
2019-05-19T18:38:20.566Z,49.29
2019-05-19T18:41:22.838Z,49.24
2019-05-19T18:44:24.779Z,48.92
2019-05-19T18:47:26.857Z,48.95
2019-05-19T18:50:28.811Z,48.97
2019-05-19T18:53:30.978Z,49.00
2019-05-19T18:56:33.036Z,49.28
2019-05-19T18:59:46.523Z,49.88
2019-05-19T19:02:40.667Z,50.50
2019-05-19T19:05:42.980Z,50.81
2019-05-19T19:08:45.938Z,50.91
2019-05-19T19:11:47.925Z,51.24
2019-05-19T19:14:49.863Z,51.68
2019-05-19T19:17:52.868Z,51.79
2019-05-19T19:20:57.523Z,52.21
2019-05-19T19:23:59.661Z,52.42
2019-05-19T19:27:03.619Z,52.74
2019-05-19T19:30:07.206Z,52.91
2019-05-19T19:33:09.345Z,52.94
2019-05-19T19:36:13.111Z,53.01
2019-05-19T19:39:22.631Z,53.18
2019-05-19T19:42:24.598Z,53.14
2019-05-19T19:45:26.682Z,53.07
2019-05-19T19:48:29.648Z,53.04
2019-05-19T19:51:31.626Z,53.16
2019-05-19T19:54:35.386Z,53.34
2019-05-19T19:57:39.403Z,53.40
2019-05-19T20:00:46.122Z,53.50
2019-05-19T20:03:49.852Z,53.84
2019-05-19T20:06:51.730Z,54.32
2019-05-19T20:09:55.976Z,54.75
2019-05-19T20:12:59.337Z,55.04
2019-05-19T20:16:02.074Z,55.19
2019-05-19T20:19:05.994Z,55.59
2019-05-19T20:22:10.214Z,55.71
2019-05-19T20:25:12.381Z,55.98
2019-05-19T20:28:14.398Z,55.98
2019-05-19T20:31:16.389Z,56.00
2019-05-19T20:34:18.255Z,56.13
2019-05-19T20:37:21.996Z,56.56
2019-05-19T20:40:24.309Z,57.14
2019-05-19T20:43:26.351Z,57.61
2019-05-19T20:46:28.391Z,59.02
2019-05-19T20:49:30.379Z,60.67
2019-05-19T20:52:32.865Z,61.85
2019-05-19T20:55:34.817Z,62.31
2019-05-19T20:58:36.728Z,62.36
2019-05-19T21:01:38.754Z,62.32
2019-05-19T21:04:40.633Z,61.85
2019-05-19T21:07:42.701Z,61.75
2019-05-19T21:10:44.745Z,60.98
2019-05-19T21:13:46.675Z,60.70
2019-05-19T21:16:50.602Z,60.93
2019-05-19T21:19:53.391Z,61.22
2019-05-19T21:22:55.359Z,61.34
2019-05-19T21:25:57.752Z,61.61
2019-05-19T21:28:59.862Z,62.03
2019-05-19T21:32:01.837Z,62.09
2019-05-19T21:35:05.048Z,62.37
2019-05-19T21:38:07.082Z,62.86
2019-05-19T21:41:09.118Z,62.89
2019-05-19T21:44:11.126Z,63.19
2019-05-19T21:47:13.042Z,63.22
2019-05-19T21:50:15.071Z,63.01
2019-05-19T21:53:16.986Z,63.14
2019-05-19T21:56:18.944Z,63.01
2019-05-19T21:59:20.868Z,63.07
2019-05-19T22:02:22.834Z,63.04
2019-05-19T22:05:24.831Z,62.98
2019-05-19T22:08:26.827Z,63.38
2019-05-19T22:11:28.767Z,64.24
2019-05-19T22:14:30.752Z,64.89
2019-05-19T22:17:32.659Z,65.46
2019-05-19T22:20:34.633Z,65.94
2019-05-19T22:23:36.719Z,65.74
2019-05-19T22:26:38.669Z,65.47
2019-05-19T22:29:40.664Z,65.25
2019-05-19T22:32:42.555Z,65.34
2019-05-19T22:35:44.501Z,65.20
2019-05-19T22:38:46.401Z,65.37
2019-05-19T22:41:48.391Z,65.43
2019-05-19T22:44:50.329Z,65.47
2019-05-19T22:47:52.358Z,65.67
2019-05-19T22:50:54.308Z,65.73
2019-05-19T22:53:56.262Z,65.55
2019-05-19T22:56:58.155Z,65.75
2019-05-19T23:00:00.062Z,65.90
2019-05-19T23:03:02.043Z,65.99
2019-05-19T23:06:03.950Z,66.72
2019-05-19T23:09:05.997Z,66.82
2019-05-19T23:12:08.062Z,66.84
2019-05-19T23:15:10.185Z,66.99
2019-05-19T23:18:12.171Z,66.97
2019-05-19T23:21:14.067Z,66.90
2019-05-19T23:24:16.148Z,67.05
2019-05-19T23:27:18.127Z,67.09
2019-05-19T23:30:20.152Z,67.39
2019-05-19T23:33:22.049Z,67.65
2019-05-19T23:36:24.018Z,67.51
2019-05-19T23:39:25.929Z,67.57
2019-05-19T23:42:27.819Z,67.78
2019-05-19T23:45:29.890Z,67.60
2019-05-19T23:48:31.873Z,67.97
2019-05-19T23:51:33.929Z,68.24
2019-05-19T23:54:35.861Z,68.08
2019-05-19T23:57:37.847Z,67.74
